sensor_id;sensor_type;location;lat;lon;timestamp;P1;durP1;ratioP1;P2;durP2;ratioP2
10880;SDS011;5493;48.884;8.338;2023-06-22T00:02:24;5.03;;;4.35;;
10880;SDS011;5493;48.884;8.338;2023-06-22T00:04:50;4.53;;;4.07;;
10880;SDS011;5493;48.884;8.338;2023-06-22T00:07:17;5.65;;;4.40;;
10880;SDS011;5493;48.884;8.338;2023-06-22T00:09:45;8.35;;;4.80;;
10880;SDS011;5493;48.884;8.338;2023-06-22T00:12:11;4.63;;;4.13;;
10880;SDS011;5493;48.884;8.338;2023-06-22T00:14:38;4.95;;;4.40;;
10880;SDS011;5493;48.884;8.338;2023-06-22T00:17:04;5.72;;;4.63;;
10880;SDS011;5493;48.884;8.338;2023-06-22T00:19:31;6.05;;;4.95;;
10880;SDS011;5493;48.884;8.338;2023-06-22T00:22:00;7.35;;;4.90;;
10880;SDS011;5493;48.884;8.338;2023-06-22T00:24:28;4.20;;;3.80;;
10880;SDS011;5493;48.884;8.338;2023-06-22T00:26:56;4.65;;;3.70;;
10880;SDS011;5493;48.884;8.338;2023-06-22T00:29:22;4.03;;;3.47;;
10880;SDS011;5493;48.884;8.338;2023-06-22T00:31:49;5.65;;;3.30;;
10880;SDS011;5493;48.884;8.338;2023-06-22T00:34:16;5.72;;;3.75;;
10880;SDS011;5493;48.884;8.338;2023-06-22T00:36:42;4.63;;;4.10;;
10880;SDS011;5493;48.884;8.338;2023-06-22T00:39:09;6.00;;;4.25;;
10880;SDS011;5493;48.884;8.338;2023-06-22T00:41:36;4.82;;;4.00;;
10880;SDS011;5493;48.884;8.338;2023-06-22T00:44:03;4.88;;;3.95;;
10880;SDS011;5493;48.884;8.338;2023-06-22T00:46:31;6.60;;;3.95;;
10880;SDS011;5493;48.884;8.338;2023-06-22T00:48:58;4.80;;;4.22;;
10880;SDS011;5493;48.884;8.338;2023-06-22T00:51:25;6.10;;;4.57;;
10880;SDS011;5493;48.884;8.338;2023-06-22T00:53:52;5.80;;;4.28;;
10880;SDS011;5493;48.884;8.338;2023-06-22T00:56:18;5.05;;;4.43;;
10880;SDS011;5493;48.884;8.338;2023-06-22T00:58:49;6.13;;;4.50;;
10880;SDS011;5493;48.884;8.338;2023-06-22T01:01:19;6.32;;;4.55;;
10880;SDS011;5493;48.884;8.338;2023-06-22T01:03:48;7.47;;;4.30;;
10880;SDS011;5493;48.884;8.338;2023-06-22T01:06:16;6.22;;;4.20;;
10880;SDS011;5493;48.884;8.338;2023-06-22T01:08:53;4.95;;;4.28;;
10880;SDS011;5493;48.884;8.338;2023-06-22T01:11:28;7.88;;;4.20;;
10880;SDS011;5493;48.884;8.338;2023-06-22T01:14:04;9.38;;;4.20;;
10880;SDS011;5493;48.884;8.338;2023-06-22T01:16:37;8.18;;;4.13;;
10880;SDS011;5493;48.884;8.338;2023-06-22T01:19:09;6.57;;;4.70;;
10880;SDS011;5493;48.884;8.338;2023-06-22T01:21:45;10.43;;;4.55;;
10880;SDS011;5493;48.884;8.338;2023-06-22T01:24:15;5.38;;;4.25;;
10880;SDS011;5493;48.884;8.338;2023-06-22T01:26:51;4.70;;;4.03;;
10880;SDS011;5493;48.884;8.338;2023-06-22T01:29:24;5.53;;;4.38;;
10880;SDS011;5493;48.884;8.338;2023-06-22T01:31:53;5.95;;;4.32;;
10880;SDS011;5493;48.884;8.338;2023-06-22T01:34:22;7.25;;;4.45;;
10880;SDS011;5493;48.884;8.338;2023-06-22T01:36:50;5.65;;;4.13;;
10880;SDS011;5493;48.884;8.338;2023-06-22T01:39:17;8.13;;;4.90;;
10880;SDS011;5493;48.884;8.338;2023-06-22T01:41:44;5.05;;;4.43;;
10880;SDS011;5493;48.884;8.338;2023-06-22T01:44:13;6.05;;;4.57;;
10880;SDS011;5493;48.884;8.338;2023-06-22T01:46:41;7.28;;;4.60;;
10880;SDS011;5493;48.884;8.338;2023-06-22T01:49:07;6.43;;;4.50;;
10880;SDS011;5493;48.884;8.338;2023-06-22T01:51:35;6.40;;;4.68;;
10880;SDS011;5493;48.884;8.338;2023-06-22T01:54:01;7.68;;;4.93;;
10880;SDS011;5493;48.884;8.338;2023-06-22T01:56:28;7.60;;;4.30;;
10880;SDS011;5493;48.884;8.338;2023-06-22T01:58:55;6.28;;;4.80;;
10880;SDS011;5493;48.884;8.338;2023-06-22T02:01:27;7.00;;;5.03;;
10880;SDS011;5493;48.884;8.338;2023-06-22T02:04:01;8.88;;;4.72;;
10880;SDS011;5493;48.884;8.338;2023-06-22T02:06:33;7.13;;;5.10;;
10880;SDS011;5493;48.884;8.338;2023-06-22T02:09:05;9.00;;;5.90;;
10880;SDS011;5493;48.884;8.338;2023-06-22T02:11:34;5.85;;;5.15;;
10880;SDS011;5493;48.884;8.338;2023-06-22T02:14:03;7.13;;;5.60;;
10880;SDS011;5493;48.884;8.338;2023-06-22T02:16:31;5.72;;;4.43;;
10880;SDS011;5493;48.884;8.338;2023-06-22T02:19:00;7.45;;;4.78;;
10880;SDS011;5493;48.884;8.338;2023-06-22T02:21:29;5.82;;;5.20;;
10880;SDS011;5493;48.884;8.338;2023-06-22T02:23:55;7.38;;;4.30;;
10880;SDS011;5493;48.884;8.338;2023-06-22T02:26:22;7.93;;;4.55;;
10880;SDS011;5493;48.884;8.338;2023-06-22T02:28:50;6.50;;;4.55;;
10880;SDS011;5493;48.884;8.338;2023-06-22T02:31:17;7.35;;;4.68;;
10880;SDS011;5493;48.884;8.338;2023-06-22T02:33:45;8.43;;;4.95;;
10880;SDS011;5493;48.884;8.338;2023-06-22T02:36:12;5.30;;;4.47;;
10880;SDS011;5493;48.884;8.338;2023-06-22T02:38:40;7.03;;;4.90;;
10880;SDS011;5493;48.884;8.338;2023-06-22T02:41:13;5.20;;;4.43;;
10880;SDS011;5493;48.884;8.338;2023-06-22T02:43:43;5.00;;;4.32;;
10880;SDS011;5493;48.884;8.338;2023-06-22T02:46:10;5.03;;;4.53;;
10880;SDS011;5493;48.884;8.338;2023-06-22T02:48:36;7.47;;;4.97;;
10880;SDS011;5493;48.884;8.338;2023-06-22T02:51:03;5.72;;;4.47;;
10880;SDS011;5493;48.884;8.338;2023-06-22T02:53:31;9.40;;;4.88;;
10880;SDS011;5493;48.884;8.338;2023-06-22T02:55:57;5.60;;;4.75;;
10880;SDS011;5493;48.884;8.338;2023-06-22T02:58:26;5.80;;;4.57;;
10880;SDS011;5493;48.884;8.338;2023-06-22T03:00:52;5.53;;;4.78;;
10880;SDS011;5493;48.884;8.338;2023-06-22T03:03:19;8.25;;;4.43;;
10880;SDS011;5493;48.884;8.338;2023-06-22T03:05:45;6.75;;;4.93;;
10880;SDS011;5493;48.884;8.338;2023-06-22T03:08:12;7.72;;;5.03;;
10880;SDS011;5493;48.884;8.338;2023-06-22T03:10:40;5.75;;;4.70;;
10880;SDS011;5493;48.884;8.338;2023-06-22T03:13:06;7.30;;;5.00;;
10880;SDS011;5493;48.884;8.338;2023-06-22T03:15:33;5.40;;;4.80;;
10880;SDS011;5493;48.884;8.338;2023-06-22T03:17:59;5.60;;;4.70;;
10880;SDS011;5493;48.884;8.338;2023-06-22T03:20:26;5.97;;;4.82;;
10880;SDS011;5493;48.884;8.338;2023-06-22T03:22:58;5.47;;;4.72;;
10880;SDS011;5493;48.884;8.338;2023-06-22T03:25:25;6.72;;;4.93;;
10880;SDS011;5493;48.884;8.338;2023-06-22T03:27:52;8.50;;;4.78;;
10880;SDS011;5493;48.884;8.338;2023-06-22T03:30:19;6.65;;;4.40;;
10880;SDS011;5493;48.884;8.338;2023-06-22T03:32:45;6.38;;;4.72;;
10880;SDS011;5493;48.884;8.338;2023-06-22T03:35:12;5.07;;;4.47;;
10880;SDS011;5493;48.884;8.338;2023-06-22T03:37:39;6.60;;;5.10;;
10880;SDS011;5493;48.884;8.338;2023-06-22T03:40:06;7.30;;;5.28;;
10880;SDS011;5493;48.884;8.338;2023-06-22T03:42:34;6.97;;;4.72;;
10880;SDS011;5493;48.884;8.338;2023-06-22T03:45:02;7.05;;;4.90;;
10880;SDS011;5493;48.884;8.338;2023-06-22T03:47:29;8.18;;;5.32;;
10880;SDS011;5493;48.884;8.338;2023-06-22T03:49:56;6.90;;;4.97;;
10880;SDS011;5493;48.884;8.338;2023-06-22T03:52:22;5.88;;;5.18;;
10880;SDS011;5493;48.884;8.338;2023-06-22T03:54:50;7.72;;;5.13;;
10880;SDS011;5493;48.884;8.338;2023-06-22T03:57:16;8.57;;;5.07;;
10880;SDS011;5493;48.884;8.338;2023-06-22T03:59:43;7.00;;;5.13;;
10880;SDS011;5493;48.884;8.338;2023-06-22T04:02:11;7.57;;;5.18;;
10880;SDS011;5493;48.884;8.338;2023-06-22T04:04:37;6.80;;;5.47;;
10880;SDS011;5493;48.884;8.338;2023-06-22T04:07:04;6.93;;;5.22;;
10880;SDS011;5493;48.884;8.338;2023-06-22T04:09:31;9.15;;;5.22;;
10880;SDS011;5493;48.884;8.338;2023-06-22T04:11:57;7.03;;;5.38;;
10880;SDS011;5493;48.884;8.338;2023-06-22T04:14:24;8.15;;;5.32;;
10880;SDS011;5493;48.884;8.338;2023-06-22T04:16:51;5.75;;;4.88;;
10880;SDS011;5493;48.884;8.338;2023-06-22T04:19:19;8.30;;;5.20;;
10880;SDS011;5493;48.884;8.338;2023-06-22T04:21:45;6.72;;;5.30;;
10880;SDS011;5493;48.884;8.338;2023-06-22T04:24:13;7.05;;;4.97;;
10880;SDS011;5493;48.884;8.338;2023-06-22T04:26:40;9.48;;;5.10;;
10880;SDS011;5493;48.884;8.338;2023-06-22T04:29:07;6.82;;;5.18;;
10880;SDS011;5493;48.884;8.338;2023-06-22T04:31:34;7.30;;;5.65;;
10880;SDS011;5493;48.884;8.338;2023-06-22T04:34:02;6.97;;;5.47;;
10880;SDS011;5493;48.884;8.338;2023-06-22T04:36:33;8.02;;;5.10;;
10880;SDS011;5493;48.884;8.338;2023-06-22T04:39:03;7.90;;;5.20;;
10880;SDS011;5493;48.884;8.338;2023-06-22T04:41:34;6.57;;;5.30;;
10880;SDS011;5493;48.884;8.338;2023-06-22T04:44:08;7.30;;;5.15;;
10880;SDS011;5493;48.884;8.338;2023-06-22T04:46:35;6.55;;;5.53;;
10880;SDS011;5493;48.884;8.338;2023-06-22T04:49:03;6.30;;;5.15;;
10880;SDS011;5493;48.884;8.338;2023-06-22T04:51:38;6.38;;;5.45;;
10880;SDS011;5493;48.884;8.338;2023-06-22T04:54:06;8.95;;;5.70;;
10880;SDS011;5493;48.884;8.338;2023-06-22T04:56:32;8.30;;;5.10;;
10880;SDS011;5493;48.884;8.338;2023-06-22T04:58:59;5.97;;;4.72;;
10880;SDS011;5493;48.884;8.338;2023-06-22T05:01:26;5.45;;;4.82;;
10880;SDS011;5493;48.884;8.338;2023-06-22T05:03:52;5.72;;;5.10;;
10880;SDS011;5493;48.884;8.338;2023-06-22T05:06:20;6.15;;;5.18;;
10880;SDS011;5493;48.884;8.338;2023-06-22T05:08:51;5.05;;;4.55;;
10880;SDS011;5493;48.884;8.338;2023-06-22T05:11:22;6.60;;;4.75;;
10880;SDS011;5493;48.884;8.338;2023-06-22T05:13:48;6.32;;;4.93;;
10880;SDS011;5493;48.884;8.338;2023-06-22T05:16:15;7.53;;;4.93;;
10880;SDS011;5493;48.884;8.338;2023-06-22T05:18:42;6.53;;;4.80;;
10880;SDS011;5493;48.884;8.338;2023-06-22T05:21:08;5.18;;;4.60;;
10880;SDS011;5493;48.884;8.338;2023-06-22T05:23:35;6.25;;;4.55;;
10880;SDS011;5493;48.884;8.338;2023-06-22T05:26:03;5.65;;;4.85;;
10880;SDS011;5493;48.884;8.338;2023-06-22T05:28:29;5.25;;;4.28;;
10880;SDS011;5493;48.884;8.338;2023-06-22T05:30:56;5.82;;;4.72;;
10880;SDS011;5493;48.884;8.338;2023-06-22T05:33:22;6.00;;;4.70;;
10880;SDS011;5493;48.884;8.338;2023-06-22T05:35:49;6.72;;;4.78;;
10880;SDS011;5493;48.884;8.338;2023-06-22T05:38:16;6.18;;;4.63;;
10880;SDS011;5493;48.884;8.338;2023-06-22T05:40:43;5.38;;;4.57;;
10880;SDS011;5493;48.884;8.338;2023-06-22T05:43:11;5.90;;;4.53;;
10880;SDS011;5493;48.884;8.338;2023-06-22T05:45:37;4.80;;;4.30;;
10880;SDS011;5493;48.884;8.338;2023-06-22T05:48:04;5.45;;;4.38;;
10880;SDS011;5493;48.884;8.338;2023-06-22T05:50:31;6.15;;;4.30;;
10880;SDS011;5493;48.884;8.338;2023-06-22T05:52:58;6.00;;;4.38;;
10880;SDS011;5493;48.884;8.338;2023-06-22T05:55:24;5.50;;;4.15;;
10880;SDS011;5493;48.884;8.338;2023-06-22T05:57:51;4.72;;;4.20;;
10880;SDS011;5493;48.884;8.338;2023-06-22T06:00:19;5.53;;;4.30;;
10880;SDS011;5493;48.884;8.338;2023-06-22T06:02:47;5.00;;;3.78;;
10880;SDS011;5493;48.884;8.338;2023-06-22T06:05:14;5.75;;;4.18;;
10880;SDS011;5493;48.884;8.338;2023-06-22T06:07:41;7.63;;;4.18;;
10880;SDS011;5493;48.884;8.338;2023-06-22T06:10:08;4.97;;;4.40;;
10880;SDS011;5493;48.884;8.338;2023-06-22T06:12:35;5.32;;;3.80;;
10880;SDS011;5493;48.884;8.338;2023-06-22T06:15:02;4.75;;;4.25;;
10880;SDS011;5493;48.884;8.338;2023-06-22T06:17:30;4.82;;;3.80;;
10880;SDS011;5493;48.884;8.338;2023-06-22T06:19:58;6.63;;;3.92;;
10880;SDS011;5493;48.884;8.338;2023-06-22T06:22:25;6.20;;;4.28;;
10880;SDS011;5493;48.884;8.338;2023-06-22T06:24:51;4.45;;;3.95;;
10880;SDS011;5493;48.884;8.338;2023-06-22T06:27:18;8.75;;;4.28;;
10880;SDS011;5493;48.884;8.338;2023-06-22T06:29:44;5.45;;;3.97;;
10880;SDS011;5493;48.884;8.338;2023-06-22T06:32:13;4.05;;;3.60;;
10880;SDS011;5493;48.884;8.338;2023-06-22T06:34:41;4.10;;;3.70;;
10880;SDS011;5493;48.884;8.338;2023-06-22T06:37:08;4.82;;;4.07;;
10880;SDS011;5493;48.884;8.338;2023-06-22T06:39:34;5.63;;;3.88;;
10880;SDS011;5493;48.884;8.338;2023-06-22T06:42:01;4.38;;;3.42;;
10880;SDS011;5493;48.884;8.338;2023-06-22T06:44:28;4.65;;;3.47;;
10880;SDS011;5493;48.884;8.338;2023-06-22T06:46:54;4.78;;;3.92;;
10880;SDS011;5493;48.884;8.338;2023-06-22T06:49:21;4.50;;;3.75;;
10880;SDS011;5493;48.884;8.338;2023-06-22T06:51:48;5.10;;;3.78;;
10880;SDS011;5493;48.884;8.338;2023-06-22T06:54:16;4.47;;;3.83;;
10880;SDS011;5493;48.884;8.338;2023-06-22T06:56:43;4.32;;;3.90;;
10880;SDS011;5493;48.884;8.338;2023-06-22T06:59:13;5.10;;;3.65;;
10880;SDS011;5493;48.884;8.338;2023-06-22T07:01:39;5.20;;;3.35;;
10880;SDS011;5493;48.884;8.338;2023-06-22T07:04:06;4.00;;;3.58;;
10880;SDS011;5493;48.884;8.338;2023-06-22T07:06:32;5.13;;;3.70;;
10880;SDS011;5493;48.884;8.338;2023-06-22T07:09:00;5.38;;;3.80;;
10880;SDS011;5493;48.884;8.338;2023-06-22T07:11:28;7.15;;;3.70;;
10880;SDS011;5493;48.884;8.338;2023-06-22T07:13:55;4.63;;;3.38;;
10880;SDS011;5493;48.884;8.338;2023-06-22T07:16:21;5.75;;;3.25;;
10880;SDS011;5493;48.884;8.338;2023-06-22T07:18:50;4.15;;;3.28;;
10880;SDS011;5493;48.884;8.338;2023-06-22T07:21:16;7.13;;;3.75;;
10880;SDS011;5493;48.884;8.338;2023-06-22T07:23:43;3.47;;;2.85;;
10880;SDS011;5493;48.884;8.338;2023-06-22T07:26:11;5.82;;;3.35;;
10880;SDS011;5493;48.884;8.338;2023-06-22T07:28:37;4.43;;;3.42;;
10880;SDS011;5493;48.884;8.338;2023-06-22T07:31:06;5.50;;;3.22;;
10880;SDS011;5493;48.884;8.338;2023-06-22T07:33:32;3.38;;;3.08;;
10880;SDS011;5493;48.884;8.338;2023-06-22T07:35:59;4.68;;;3.17;;
10880;SDS011;5493;48.884;8.338;2023-06-22T07:38:25;4.20;;;3.38;;
10880;SDS011;5493;48.884;8.338;2023-06-22T07:40:52;6.07;;;3.17;;
10880;SDS011;5493;48.884;8.338;2023-06-22T07:43:19;4.82;;;3.00;;
10880;SDS011;5493;48.884;8.338;2023-06-22T07:45:48;4.20;;;3.25;;
10880;SDS011;5493;48.884;8.338;2023-06-22T07:48:17;5.82;;;3.28;;
10880;SDS011;5493;48.884;8.338;2023-06-22T07:50:43;3.53;;;2.53;;
10880;SDS011;5493;48.884;8.338;2023-06-22T07:53:10;4.53;;;3.30;;
10880;SDS011;5493;48.884;8.338;2023-06-22T07:55:36;4.45;;;2.88;;
10880;SDS011;5493;48.884;8.338;2023-06-22T07:58:03;4.60;;;3.63;;
10880;SDS011;5493;48.884;8.338;2023-06-22T08:00:31;4.55;;;3.20;;
10880;SDS011;5493;48.884;8.338;2023-06-22T08:02:58;2.95;;;2.63;;
10880;SDS011;5493;48.884;8.338;2023-06-22T08:05:25;3.72;;;3.22;;
10880;SDS011;5493;48.884;8.338;2023-06-22T08:07:52;5.75;;;3.30;;
10880;SDS011;5493;48.884;8.338;2023-06-22T08:10:20;4.60;;;3.13;;
10880;SDS011;5493;48.884;8.338;2023-06-22T08:12:46;4.47;;;3.30;;
10880;SDS011;5493;48.884;8.338;2023-06-22T08:15:13;3.58;;;3.20;;
10880;SDS011;5493;48.884;8.338;2023-06-22T08:17:41;3.63;;;3.30;;
10880;SDS011;5493;48.884;8.338;2023-06-22T08:20:07;3.72;;;2.95;;
10880;SDS011;5493;48.884;8.338;2023-06-22T08:22:37;5.32;;;3.58;;
10880;SDS011;5493;48.884;8.338;2023-06-22T08:25:04;4.53;;;3.53;;
10880;SDS011;5493;48.884;8.338;2023-06-22T08:27:31;5.53;;;3.58;;
10880;SDS011;5493;48.884;8.338;2023-06-22T08:29:58;4.03;;;3.50;;
10880;SDS011;5493;48.884;8.338;2023-06-22T08:32:25;4.55;;;3.42;;
10880;SDS011;5493;48.884;8.338;2023-06-22T08:34:53;5.47;;;3.75;;
10880;SDS011;5493;48.884;8.338;2023-06-22T08:37:20;5.95;;;3.50;;
10880;SDS011;5493;48.884;8.338;2023-06-22T08:39:55;4.72;;;3.97;;
10880;SDS011;5493;48.884;8.338;2023-06-22T08:42:22;6.22;;;3.78;;
10880;SDS011;5493;48.884;8.338;2023-06-22T08:44:49;5.28;;;3.63;;
10880;SDS011;5493;48.884;8.338;2023-06-22T08:47:16;8.07;;;3.63;;
10880;SDS011;5493;48.884;8.338;2023-06-22T08:49:42;4.30;;;3.90;;
10880;SDS011;5493;48.884;8.338;2023-06-22T08:52:10;7.13;;;3.78;;
10880;SDS011;5493;48.884;8.338;2023-06-22T08:54:37;4.75;;;3.60;;
10880;SDS011;5493;48.884;8.338;2023-06-22T08:57:03;4.65;;;3.63;;
10880;SDS011;5493;48.884;8.338;2023-06-22T08:59:30;5.05;;;3.90;;
10880;SDS011;5493;48.884;8.338;2023-06-22T09:01:57;4.82;;;3.80;;
10880;SDS011;5493;48.884;8.338;2023-06-22T09:04:23;5.95;;;3.90;;
10880;SDS011;5493;48.884;8.338;2023-06-22T09:06:50;6.50;;;3.80;;
10880;SDS011;5493;48.884;8.338;2023-06-22T09:09:18;6.15;;;3.58;;
10880;SDS011;5493;48.884;8.338;2023-06-22T09:11:45;4.80;;;3.90;;
10880;SDS011;5493;48.884;8.338;2023-06-22T09:14:12;4.20;;;3.75;;
10880;SDS011;5493;48.884;8.338;2023-06-22T09:16:38;4.47;;;3.60;;
10880;SDS011;5493;48.884;8.338;2023-06-22T09:19:05;5.72;;;3.78;;
10880;SDS011;5493;48.884;8.338;2023-06-22T09:21:31;4.88;;;3.72;;
10880;SDS011;5493;48.884;8.338;2023-06-22T09:23:58;4.68;;;3.75;;
10880;SDS011;5493;48.884;8.338;2023-06-22T09:26:26;6.38;;;3.63;;
10880;SDS011;5493;48.884;8.338;2023-06-22T09:28:52;6.47;;;3.78;;
10880;SDS011;5493;48.884;8.338;2023-06-22T09:31:19;6.13;;;3.72;;
10880;SDS011;5493;48.884;8.338;2023-06-22T09:33:51;5.20;;;3.75;;
10880;SDS011;5493;48.884;8.338;2023-06-22T09:36:19;5.43;;;3.70;;
10880;SDS011;5493;48.884;8.338;2023-06-22T09:38:45;5.13;;;4.00;;
10880;SDS011;5493;48.884;8.338;2023-06-22T09:41:12;7.40;;;3.80;;
10880;SDS011;5493;48.884;8.338;2023-06-22T09:43:40;4.30;;;3.78;;
10880;SDS011;5493;48.884;8.338;2023-06-22T09:46:06;5.80;;;3.85;;
10880;SDS011;5493;48.884;8.338;2023-06-22T09:48:34;6.50;;;4.40;;
10880;SDS011;5493;48.884;8.338;2023-06-22T09:51:01;4.65;;;4.18;;
10880;SDS011;5493;48.884;8.338;2023-06-22T09:53:27;4.88;;;3.92;;
10880;SDS011;5493;48.884;8.338;2023-06-22T09:55:54;5.32;;;4.15;;
10880;SDS011;5493;48.884;8.338;2023-06-22T09:58:20;4.70;;;4.20;;
10880;SDS011;5493;48.884;8.338;2023-06-22T10:00:48;6.10;;;3.97;;
10880;SDS011;5493;48.884;8.338;2023-06-22T10:03:15;5.70;;;4.00;;
10880;SDS011;5493;48.884;8.338;2023-06-22T10:05:41;4.82;;;3.95;;
10880;SDS011;5493;48.884;8.338;2023-06-22T10:08:08;5.50;;;3.90;;
10880;SDS011;5493;48.884;8.338;2023-06-22T10:10:35;4.82;;;3.90;;
10880;SDS011;5493;48.884;8.338;2023-06-22T10:13:03;5.07;;;4.50;;
10880;SDS011;5493;48.884;8.338;2023-06-22T10:15:35;5.53;;;4.13;;
10880;SDS011;5493;48.884;8.338;2023-06-22T10:18:03;8.07;;;4.18;;
10880;SDS011;5493;48.884;8.338;2023-06-22T10:20:29;6.85;;;4.28;;
10880;SDS011;5493;48.884;8.338;2023-06-22T10:22:56;8.50;;;4.18;;
10880;SDS011;5493;48.884;8.338;2023-06-22T10:25:23;9.40;;;4.35;;
10880;SDS011;5493;48.884;8.338;2023-06-22T10:27:50;7.13;;;4.30;;
10880;SDS011;5493;48.884;8.338;2023-06-22T10:30:17;7.72;;;4.22;;
10880;SDS011;5493;48.884;8.338;2023-06-22T10:32:43;6.68;;;4.78;;
10880;SDS011;5493;48.884;8.338;2023-06-22T10:35:11;7.25;;;4.43;;
10880;SDS011;5493;48.884;8.338;2023-06-22T10:37:41;4.20;;;3.80;;
10880;SDS011;5493;48.884;8.338;2023-06-22T10:40:08;7.03;;;4.05;;
10880;SDS011;5493;48.884;8.338;2023-06-22T10:42:35;5.88;;;3.75;;
10880;SDS011;5493;48.884;8.338;2023-06-22T10:45:02;5.93;;;4.00;;
10880;SDS011;5493;48.884;8.338;2023-06-22T10:47:29;6.32;;;4.22;;
10880;SDS011;5493;48.884;8.338;2023-06-22T10:49:55;7.57;;;4.32;;
10880;SDS011;5493;48.884;8.338;2023-06-22T10:52:23;6.00;;;4.05;;
10880;SDS011;5493;48.884;8.338;2023-06-22T10:54:50;4.88;;;4.00;;
10880;SDS011;5493;48.884;8.338;2023-06-22T10:57:17;6.78;;;4.50;;
10880;SDS011;5493;48.884;8.338;2023-06-22T10:59:44;5.82;;;4.47;;
10880;SDS011;5493;48.884;8.338;2023-06-22T11:02:10;6.05;;;4.28;;
10880;SDS011;5493;48.884;8.338;2023-06-22T11:04:37;5.57;;;4.53;;
10880;SDS011;5493;48.884;8.338;2023-06-22T11:07:03;5.25;;;4.47;;
10880;SDS011;5493;48.884;8.338;2023-06-22T11:09:32;7.63;;;4.35;;
10880;SDS011;5493;48.884;8.338;2023-06-22T11:11:58;7.18;;;4.25;;
10880;SDS011;5493;48.884;8.338;2023-06-22T11:14:25;4.97;;;4.50;;
10880;SDS011;5493;48.884;8.338;2023-06-22T11:16:51;5.35;;;4.30;;
10880;SDS011;5493;48.884;8.338;2023-06-22T11:19:18;6.78;;;4.30;;
10880;SDS011;5493;48.884;8.338;2023-06-22T11:21:44;6.72;;;4.18;;
10880;SDS011;5493;48.884;8.338;2023-06-22T11:24:11;4.30;;;3.90;;
10880;SDS011;5493;48.884;8.338;2023-06-22T11:26:39;5.78;;;4.20;;
10880;SDS011;5493;48.884;8.338;2023-06-22T11:29:05;7.32;;;4.25;;
10880;SDS011;5493;48.884;8.338;2023-06-22T11:31:33;5.35;;;4.50;;
10880;SDS011;5493;48.884;8.338;2023-06-22T11:34:00;5.88;;;4.57;;
10880;SDS011;5493;48.884;8.338;2023-06-22T11:36:27;5.93;;;4.22;;
10880;SDS011;5493;48.884;8.338;2023-06-22T11:38:54;6.47;;;4.47;;
10880;SDS011;5493;48.884;8.338;2023-06-22T11:41:21;4.50;;;3.95;;
10880;SDS011;5493;48.884;8.338;2023-06-22T11:43:49;7.65;;;4.40;;
10880;SDS011;5493;48.884;8.338;2023-06-22T11:46:15;5.20;;;4.00;;
10880;SDS011;5493;48.884;8.338;2023-06-22T11:48:42;6.95;;;4.20;;
10880;SDS011;5493;48.884;8.338;2023-06-22T11:51:08;5.13;;;4.45;;
10880;SDS011;5493;48.884;8.338;2023-06-22T11:53:35;6.40;;;4.13;;
10880;SDS011;5493;48.884;8.338;2023-06-22T11:56:01;6.05;;;3.95;;
10880;SDS011;5493;48.884;8.338;2023-06-22T11:58:28;7.57;;;4.20;;
10880;SDS011;5493;48.884;8.338;2023-06-22T12:00:56;5.85;;;3.95;;
10880;SDS011;5493;48.884;8.338;2023-06-22T12:03:22;5.57;;;4.00;;
10880;SDS011;5493;48.884;8.338;2023-06-22T12:05:49;7.07;;;4.25;;
10880;SDS011;5493;48.884;8.338;2023-06-22T12:08:16;5.47;;;4.20;;
10880;SDS011;5493;48.884;8.338;2023-06-22T12:10:42;7.72;;;4.75;;
10880;SDS011;5493;48.884;8.338;2023-06-22T12:13:09;8.88;;;4.35;;
10880;SDS011;5493;48.884;8.338;2023-06-22T12:15:35;6.00;;;4.15;;
10880;SDS011;5493;48.884;8.338;2023-06-22T12:18:03;6.25;;;4.70;;
10880;SDS011;5493;48.884;8.338;2023-06-22T12:20:30;5.47;;;4.55;;
10880;SDS011;5493;48.884;8.338;2023-06-22T12:22:57;6.20;;;4.35;;
10880;SDS011;5493;48.884;8.338;2023-06-22T12:25:23;6.45;;;4.70;;
10880;SDS011;5493;48.884;8.338;2023-06-22T12:27:50;6.10;;;4.60;;
10880;SDS011;5493;48.884;8.338;2023-06-22T12:30:16;7.88;;;4.50;;
10880;SDS011;5493;48.884;8.338;2023-06-22T12:32:43;5.53;;;4.43;;
10880;SDS011;5493;48.884;8.338;2023-06-22T12:35:11;5.80;;;4.38;;
10880;SDS011;5493;48.884;8.338;2023-06-22T12:37:39;7.07;;;4.53;;
10880;SDS011;5493;48.884;8.338;2023-06-22T12:40:06;6.72;;;4.50;;
10880;SDS011;5493;48.884;8.338;2023-06-22T12:42:34;7.65;;;4.70;;
10880;SDS011;5493;48.884;8.338;2023-06-22T12:45:00;5.03;;;4.53;;
10880;SDS011;5493;48.884;8.338;2023-06-22T12:47:27;5.32;;;4.53;;
10880;SDS011;5493;48.884;8.338;2023-06-22T12:49:53;7.07;;;5.43;;
10880;SDS011;5493;48.884;8.338;2023-06-22T12:52:21;7.38;;;5.03;;
10880;SDS011;5493;48.884;8.338;2023-06-22T12:54:48;6.03;;;4.63;;
10880;SDS011;5493;48.884;8.338;2023-06-22T12:57:14;5.50;;;4.78;;
10880;SDS011;5493;48.884;8.338;2023-06-22T12:59:42;6.70;;;4.82;;
10880;SDS011;5493;48.884;8.338;2023-06-22T13:02:09;10.88;;;5.30;;
10880;SDS011;5493;48.884;8.338;2023-06-22T13:04:35;6.50;;;5.15;;
10880;SDS011;5493;48.884;8.338;2023-06-22T13:07:02;6.93;;;4.45;;
10880;SDS011;5493;48.884;8.338;2023-06-22T13:09:30;6.35;;;4.72;;
10880;SDS011;5493;48.884;8.338;2023-06-22T13:11:57;6.55;;;5.20;;
10880;SDS011;5493;48.884;8.338;2023-06-22T13:14:23;6.47;;;5.10;;
10880;SDS011;5493;48.884;8.338;2023-06-22T13:16:50;6.25;;;4.90;;
10880;SDS011;5493;48.884;8.338;2023-06-22T13:19:16;6.18;;;4.72;;
10880;SDS011;5493;48.884;8.338;2023-06-22T13:21:43;6.07;;;4.78;;
10880;SDS011;5493;48.884;8.338;2023-06-22T13:24:09;6.88;;;4.88;;
10880;SDS011;5493;48.884;8.338;2023-06-22T13:26:37;6.40;;;5.03;;
10880;SDS011;5493;48.884;8.338;2023-06-22T13:29:04;7.70;;;4.78;;
10880;SDS011;5493;48.884;8.338;2023-06-22T13:31:30;5.57;;;5.00;;
10880;SDS011;5493;48.884;8.338;2023-06-22T13:33:57;5.80;;;5.00;;
10880;SDS011;5493;48.884;8.338;2023-06-22T13:36:23;6.60;;;5.07;;
10880;SDS011;5493;48.884;8.338;2023-06-22T13:38:50;8.10;;;5.28;;
10880;SDS011;5493;48.884;8.338;2023-06-22T13:41:16;6.97;;;5.18;;
10880;SDS011;5493;48.884;8.338;2023-06-22T13:43:44;8.07;;;5.07;;
10880;SDS011;5493;48.884;8.338;2023-06-22T13:46:11;6.93;;;5.10;;
10880;SDS011;5493;48.884;8.338;2023-06-22T13:48:37;9.27;;;5.32;;
10880;SDS011;5493;48.884;8.338;2023-06-22T13:51:04;6.63;;;5.00;;
10880;SDS011;5493;48.884;8.338;2023-06-22T13:53:31;8.00;;;5.18;;
10880;SDS011;5493;48.884;8.338;2023-06-22T13:55:57;7.65;;;4.97;;
10880;SDS011;5493;48.884;8.338;2023-06-22T13:58:24;6.38;;;4.60;;
10880;SDS011;5493;48.884;8.338;2023-06-22T14:00:52;8.32;;;5.20;;
10880;SDS011;5493;48.884;8.338;2023-06-22T14:03:18;8.05;;;5.30;;
10880;SDS011;5493;48.884;8.338;2023-06-22T14:05:45;9.70;;;5.65;;
10880;SDS011;5493;48.884;8.338;2023-06-22T14:08:11;7.55;;;5.25;;
10880;SDS011;5493;48.884;8.338;2023-06-22T14:10:38;8.93;;;5.47;;
10880;SDS011;5493;48.884;8.338;2023-06-22T14:13:05;8.15;;;5.72;;
10880;SDS011;5493;48.884;8.338;2023-06-22T14:15:31;8.10;;;5.28;;
10880;SDS011;5493;48.884;8.338;2023-06-22T14:17:59;6.72;;;4.95;;
10880;SDS011;5493;48.884;8.338;2023-06-22T14:20:26;11.18;;;5.55;;
10880;SDS011;5493;48.884;8.338;2023-06-22T14:22:52;8.48;;;5.18;;
10880;SDS011;5493;48.884;8.338;2023-06-22T14:25:19;7.15;;;5.13;;
10880;SDS011;5493;48.884;8.338;2023-06-22T14:27:45;6.25;;;4.90;;
10880;SDS011;5493;48.884;8.338;2023-06-22T14:30:12;7.45;;;5.38;;
10880;SDS011;5493;48.884;8.338;2023-06-22T14:32:38;6.90;;;5.07;;
10880;SDS011;5493;48.884;8.338;2023-06-22T14:35:07;6.50;;;5.10;;
10880;SDS011;5493;48.884;8.338;2023-06-22T14:37:33;9.65;;;5.40;;
10880;SDS011;5493;48.884;8.338;2023-06-22T14:40:00;8.63;;;5.40;;
10880;SDS011;5493;48.884;8.338;2023-06-22T14:42:26;8.02;;;4.90;;
10880;SDS011;5493;48.884;8.338;2023-06-22T14:44:55;7.55;;;5.03;;
10880;SDS011;5493;48.884;8.338;2023-06-22T14:47:21;9.75;;;4.72;;
10880;SDS011;5493;48.884;8.338;2023-06-22T14:49:48;5.65;;;4.82;;
10880;SDS011;5493;48.884;8.338;2023-06-22T14:52:16;8.13;;;5.03;;
10880;SDS011;5493;48.884;8.338;2023-06-22T14:54:42;6.40;;;4.68;;
10880;SDS011;5493;48.884;8.338;2023-06-22T14:57:09;9.25;;;4.93;;
10880;SDS011;5493;48.884;8.338;2023-06-22T14:59:35;8.25;;;4.68;;
10880;SDS011;5493;48.884;8.338;2023-06-22T15:02:02;7.40;;;5.13;;